Tropical Cyclones
[Index]
Main Index Home Page Stock Weather Photos Extreme Storms Discussion Storm News and Storm Chasing Reports Tropical Cyclones / Hurricanes / Typhoons Weather Data and Links Wild Fires / Bushfires Weather Observation Techniques Weather Picture Catalogue Tornado Pictures and Reports Stock Video Footage and DVDs for sale
Season 1997-1998 Tropical Cyclone ELSIE Track Map
Season 1997-1998 Summaries: [BoM-AU] [JTWC-AU] [JTWC-SIO] [JTWC-SPAC] [JTWC-SH]
<<- Previous TC | JTWC 1997-1998 Season | Next TC ->>

click for intensity scale information  Lat/long Grid: Show Hide

 Date Labels: Show Hide

Joint Typhoon Warning Centre Cyclone Data

Name: ELSIE

04 Mar 1998 18:00 UTC to 18 Mar 1998 18:00 UTC

    date/time    lat    long     hPa   cat  kts
1998-03-04 18    9.0    92.5                  20          
1998-03-05 00    9.1    92.3                  20          
1998-03-05 06    9.2    92.2                  20          
1998-03-05 12    9.3    92.1                  20          
1998-03-05 18    9.4    92.1                  20          
1998-03-06 00    9.5    92.0                  20          
1998-03-06 06    9.6    92.0                  20          
1998-03-06 12    9.7    91.9                  20          
1998-03-06 18    9.8    91.9                  20          
1998-03-07 00    9.9    91.8                  20          
1998-03-07 06   10.1    91.7                  20          
1998-03-07 12   10.3    91.6                  20          
1998-03-07 18   10.4    91.6                  20          
1998-03-08 00   10.8    91.3                  20          
1998-03-08 06   11.3    91.1                  20          
1998-03-08 12   11.7    90.8                  20          
1998-03-08 18   12.1    90.5                  20          
1998-03-09 00   12.5    90.2                  20          
1998-03-09 06   12.8    89.7                  20          
1998-03-09 12   13.0    89.4                  25          
1998-03-09 18   13.1    89.0                  25          
1998-03-10 00   13.2    88.3                  25          
1998-03-10 06   13.3    87.6                  25          
1998-03-10 12   13.5    86.8                  25          
1998-03-10 18   13.8    86.2                  25          
1998-03-11 00   14.3    85.4                  25          
1998-03-11 06   15.0    84.6                  25          
1998-03-11 12   15.7    83.9                  30          
1998-03-11 18   16.4    83.2                  30          
1998-03-12 00   17.2    82.5                  35          
1998-03-12 06   17.8    82.0            1     40          
1998-03-12 12   18.4    81.7            1     50          
1998-03-12 18   18.9    81.4            2     60          
1998-03-13 00   19.4    81.2            3     90          
1998-03-13 06   19.8    81.1            3     90          
1998-03-13 12   20.1    81.1            3     90          
1998-03-13 18   20.4    81.1            3     75          
1998-03-14 00   20.6    80.9            3     75          
1998-03-14 06   20.8    80.7            2     70          
1998-03-14 12   21.0    80.4            2     65          
1998-03-14 18   21.2    80.0            2     60          
1998-03-15 00   21.4    79.3            1     50          
1998-03-15 06   21.8    78.5            1     45          
1998-03-15 12   22.1    78.2            1     45          
1998-03-15 18   22.6    78.0            1     45          
1998-03-16 00   23.1    77.8            1     40          
1998-03-16 06   23.8    77.5                  35          
1998-03-16 12   24.3    77.2                  35          
1998-03-16 18   25.1    77.2                  35          
1998-03-17 00   25.6    77.7                  35          
1998-03-17 06   25.7    78.2                  35          
1998-03-17 12   25.6    78.9                  35          
1998-03-17 18   25.3    79.7                  35          
1998-03-18 00   24.7    80.6                  30          
1998-03-18 06   23.9    81.5                  30          
1998-03-18 12   23.2    82.1                  25          
1998-03-18 18   22.8    82.6                  25          
Winds are 1-min average.

Tropical cyclone tracks developed by Michael Bath using data from the Joint Typhoon Warning Centre Best Tracks and Google Maps.


[Australian Severe Weather index] [Copyright Notice] [Email Contacts] [Search This Site] [Privacy Policy]
Document: tropical_cyclone_elsie.htm Updated: 18 September 2016